createdAt,value
2019-03-15T00:00:06.761Z,54.00
2019-03-15T00:01:08.979Z,54.16
2019-03-15T00:02:11.197Z,54.07
2019-03-15T00:03:13.418Z,54.18
2019-03-15T00:04:15.692Z,53.96
2019-03-15T00:05:17.819Z,54.00
2019-03-15T00:06:21.247Z,54.14
2019-03-15T00:07:23.464Z,54.09
2019-03-15T00:08:25.654Z,54.13
2019-03-15T00:09:27.873Z,54.08
2019-03-15T00:10:30.093Z,54.18
2019-03-15T00:11:32.293Z,54.12
2019-03-15T00:12:34.488Z,54.15
2019-03-15T00:13:36.829Z,54.12
2019-03-15T00:14:39.041Z,54.14
2019-03-15T00:15:41.252Z,54.18
2019-03-15T00:16:43.459Z,54.18
2019-03-15T00:17:45.693Z,54.20
2019-03-15T00:18:47.923Z,54.22
2019-03-15T00:19:50.217Z,54.13
2019-03-15T00:20:52.473Z,54.09
2019-03-15T00:21:54.676Z,54.12
2019-03-15T00:22:57.197Z,54.20
2019-03-15T00:23:59.398Z,54.21
2019-03-15T00:25:01.660Z,54.22
2019-03-15T00:26:03.885Z,54.10
2019-03-15T00:27:06.102Z,54.21
2019-03-15T00:28:08.312Z,54.17
2019-03-15T00:29:10.526Z,54.17
2019-03-15T00:30:12.827Z,54.18
2019-03-15T00:31:15.061Z,54.19
2019-03-15T00:32:17.295Z,54.21
2019-03-15T00:33:19.502Z,54.20
2019-03-15T00:34:21.720Z,54.18
2019-03-15T00:35:23.930Z,54.08
2019-03-15T00:36:26.163Z,54.16
2019-03-15T00:37:28.362Z,54.16
2019-03-15T00:38:30.575Z,54.15
2019-03-15T00:39:32.923Z,54.21
2019-03-15T00:40:35.071Z,54.17
2019-03-15T00:41:37.311Z,53.99
2019-03-15T00:42:39.504Z,54.15
2019-03-15T00:43:41.710Z,54.10
2019-03-15T00:44:45.860Z,54.11
2019-03-15T00:45:47.750Z,54.12
2019-03-15T00:46:49.985Z,54.12
2019-03-15T00:47:52.201Z,54.12
2019-03-15T00:48:54.401Z,54.11
2019-03-15T00:49:56.615Z,54.11
2019-03-15T00:50:58.926Z,54.10
2019-03-15T00:52:02.170Z,54.11
2019-03-15T00:53:04.375Z,54.11
2019-03-15T00:54:06.658Z,54.09
2019-03-15T00:55:08.779Z,54.09
2019-03-15T00:56:11.681Z,54.09
2019-03-15T00:57:14.020Z,54.08
2019-03-15T00:58:16.224Z,54.04
2019-03-15T00:59:18.467Z,54.04
2019-03-15T01:00:20.645Z,54.07
2019-03-15T01:01:22.856Z,54.07
2019-03-15T01:02:25.095Z,54.00
2019-03-15T01:03:27.304Z,54.04
2019-03-15T01:04:29.506Z,54.03
2019-03-15T01:05:31.727Z,54.06
2019-03-15T01:06:33.923Z,54.04
2019-03-15T01:07:36.163Z,54.01
2019-03-15T01:08:38.388Z,54.01
2019-03-15T01:09:42.987Z,54.03
2019-03-15T01:10:45.180Z,53.98
2019-03-15T01:11:47.391Z,53.90
2019-03-15T01:12:49.638Z,53.95
2019-03-15T01:13:53.235Z,53.87
2019-03-15T01:14:55.428Z,53.85
2019-03-15T01:15:57.639Z,53.79
2019-03-15T01:17:00.623Z,53.89
2019-03-15T01:18:02.989Z,53.90
2019-03-15T01:19:05.207Z,53.94
2019-03-15T01:20:07.416Z,53.93
2019-03-15T01:21:09.630Z,53.95
2019-03-15T01:22:11.820Z,53.98
2019-03-15T01:23:14.056Z,53.88
2019-03-15T01:24:16.269Z,53.93
2019-03-15T01:25:18.474Z,53.87
2019-03-15T01:26:20.688Z,53.79
2019-03-15T01:27:22.874Z,53.90
2019-03-15T01:28:25.118Z,53.87
2019-03-15T01:29:27.317Z,53.85
2019-03-15T01:30:29.536Z,53.76
2019-03-15T01:31:31.817Z,53.88
2019-03-15T01:32:34.029Z,53.93
2019-03-15T01:33:36.314Z,53.95
2019-03-15T01:34:39.990Z,53.95
2019-03-15T01:35:42.247Z,53.79
2019-03-15T01:36:44.440Z,53.89
2019-03-15T01:37:46.651Z,53.74
2019-03-15T01:38:48.898Z,53.91
2019-03-15T01:39:51.101Z,53.91
2019-03-15T01:40:53.315Z,53.90
2019-03-15T01:41:58.666Z,53.91
2019-03-15T01:43:02.425Z,53.89
2019-03-15T01:44:07.202Z,53.92
2019-03-15T01:45:09.418Z,53.91
2019-03-15T01:46:11.620Z,53.87
2019-03-15T01:47:13.827Z,53.89
2019-03-15T01:48:16.923Z,53.89
2019-03-15T01:49:19.280Z,53.76
2019-03-15T01:50:21.505Z,53.91
2019-03-15T01:51:23.718Z,53.90
2019-03-15T01:52:25.926Z,53.89
2019-03-15T01:53:28.117Z,53.92
2019-03-15T01:54:30.370Z,53.91
2019-03-15T01:55:32.577Z,53.89
2019-03-15T01:56:34.776Z,53.81
2019-03-15T01:57:36.985Z,53.89
2019-03-15T01:58:39.191Z,53.90
2019-03-15T01:59:41.392Z,53.89
2019-03-15T02:00:43.594Z,53.89
2019-03-15T02:01:45.803Z,53.86
2019-03-15T02:02:48.502Z,53.87
2019-03-15T02:03:50.795Z,53.91
2019-03-15T02:04:53.034Z,53.86
2019-03-15T02:05:55.247Z,53.91
2019-03-15T02:06:57.451Z,53.89
2019-03-15T02:08:00.647Z,53.86
2019-03-15T02:09:03.558Z,53.88
2019-03-15T02:10:05.787Z,53.87
2019-03-15T02:11:07.995Z,53.88
2019-03-15T02:12:10.464Z,53.86
2019-03-15T02:13:12.667Z,53.86
2019-03-15T02:14:14.854Z,53.84
2019-03-15T02:15:17.087Z,53.87
2019-03-15T02:16:19.414Z,53.81
2019-03-15T02:17:21.693Z,53.86
2019-03-15T02:18:23.903Z,53.87
2019-03-15T02:19:26.119Z,53.81
2019-03-15T02:20:28.346Z,53.86
2019-03-15T02:21:36.829Z,53.84
2019-03-15T02:22:39.025Z,53.80
2019-03-15T02:23:41.222Z,53.85
2019-03-15T02:24:43.427Z,53.82
2019-03-15T02:25:45.695Z,53.83
2019-03-15T02:26:48.489Z,53.81
2019-03-15T02:27:50.855Z,53.81
2019-03-15T02:28:53.070Z,53.80
2019-03-15T02:29:55.263Z,53.78
2019-03-15T02:30:57.495Z,53.83
2019-03-15T02:31:59.685Z,53.80
2019-03-15T02:33:01.899Z,53.81
2019-03-15T02:34:04.116Z,53.81
2019-03-15T02:35:06.332Z,53.79
2019-03-15T02:36:10.581Z,53.77
2019-03-15T02:37:12.432Z,53.81
2019-03-15T02:38:14.620Z,53.78
2019-03-15T02:39:16.812Z,53.77
2019-03-15T02:40:19.011Z,53.77
2019-03-15T02:41:24.429Z,53.77
2019-03-15T02:42:26.651Z,53.74
2019-03-15T02:43:28.837Z,53.71
2019-03-15T02:44:31.026Z,53.74
2019-03-15T02:45:34.952Z,53.76
2019-03-15T02:46:37.192Z,53.63
2019-03-15T02:47:39.387Z,53.71
2019-03-15T02:48:41.615Z,53.74
2019-03-15T02:49:43.907Z,53.75
2019-03-15T02:50:46.137Z,53.68
2019-03-15T02:51:49.916Z,53.71
2019-03-15T02:52:53.703Z,53.56
2019-03-15T02:53:55.896Z,53.66
2019-03-15T02:54:58.089Z,53.70
2019-03-15T02:56:00.273Z,53.70
2019-03-15T02:57:02.613Z,53.70
2019-03-15T02:58:04.815Z,53.69
2019-03-15T02:59:07.032Z,53.70
2019-03-15T03:00:09.230Z,53.71
2019-03-15T03:01:11.427Z,53.69
2019-03-15T03:02:13.673Z,53.70
2019-03-15T03:03:15.916Z,53.70
2019-03-15T03:04:18.123Z,53.71
2019-03-15T03:05:20.307Z,53.68
2019-03-15T03:06:22.512Z,53.65
2019-03-15T03:07:24.794Z,53.70
2019-03-15T03:08:26.986Z,53.67
2019-03-15T03:09:29.226Z,53.69
2019-03-15T03:10:31.436Z,53.56
2019-03-15T03:11:33.636Z,53.68
2019-03-15T03:12:35.873Z,53.66
2019-03-15T03:13:38.149Z,53.64
2019-03-15T03:14:40.324Z,53.62
2019-03-15T03:15:42.529Z,53.64
2019-03-15T03:16:46.315Z,53.65
2019-03-15T03:17:51.134Z,53.66
2019-03-15T03:18:53.331Z,53.65
2019-03-15T03:19:55.530Z,53.65
2019-03-15T03:20:57.740Z,53.58
2019-03-15T03:21:59.956Z,53.63
2019-03-15T03:23:02.322Z,53.61
2019-03-15T03:24:04.486Z,53.64
2019-03-15T03:25:06.684Z,53.59
2019-03-15T03:26:08.908Z,53.58
2019-03-15T03:27:11.099Z,53.59
2019-03-15T03:28:13.449Z,53.61
2019-03-15T03:29:15.629Z,53.60
2019-03-15T03:30:17.850Z,53.61
2019-03-15T03:31:20.034Z,53.57
2019-03-15T03:32:22.238Z,53.58
2019-03-15T03:33:24.537Z,53.58
2019-03-15T03:34:26.675Z,53.58
2019-03-15T03:35:28.885Z,53.57
2019-03-15T03:36:31.070Z,53.51
2019-03-15T03:37:33.271Z,53.58
2019-03-15T03:38:35.526Z,53.58
2019-03-15T03:39:37.722Z,53.56
2019-03-15T03:40:39.942Z,53.57
2019-03-15T03:41:42.156Z,53.48
2019-03-15T03:42:44.356Z,53.39
2019-03-15T03:43:46.712Z,53.55
2019-03-15T03:44:48.943Z,53.57
2019-03-15T03:45:51.153Z,53.47
2019-03-15T03:46:53.363Z,53.56
2019-03-15T03:47:55.572Z,53.50
2019-03-15T03:48:57.812Z,53.52
2019-03-15T03:50:01.618Z,53.52
2019-03-15T03:51:03.783Z,53.49
2019-03-15T03:52:06.007Z,53.48
2019-03-15T03:53:08.221Z,53.53
2019-03-15T03:54:10.476Z,53.41
2019-03-15T03:55:12.946Z,53.42
2019-03-15T03:56:15.178Z,53.43
2019-03-15T03:57:17.410Z,53.52
2019-03-15T03:58:19.586Z,53.54
2019-03-15T03:59:21.825Z,53.51
2019-03-15T04:00:25.046Z,53.42
2019-03-15T04:01:27.242Z,53.48
2019-03-15T04:02:32.794Z,53.54
2019-03-15T04:03:33.444Z,53.52
2019-03-15T04:04:36.772Z,53.48
2019-03-15T04:05:38.988Z,53.55
2019-03-15T04:06:41.176Z,53.54
2019-03-15T04:07:43.406Z,53.50
2019-03-15T04:08:45.667Z,53.53
2019-03-15T04:09:47.899Z,53.51
2019-03-15T04:10:50.115Z,53.50
2019-03-15T04:11:55.692Z,53.52
2019-03-15T04:12:56.170Z,53.50
2019-03-15T04:13:58.475Z,53.54
2019-03-15T04:15:00.680Z,53.53
2019-03-15T04:16:02.968Z,53.45
2019-03-15T04:17:05.240Z,53.54
2019-03-15T04:18:07.433Z,53.55
2019-03-15T04:19:09.690Z,53.51
2019-03-15T04:20:11.916Z,53.43
2019-03-15T04:21:14.125Z,53.49
2019-03-15T04:22:16.318Z,53.48
2019-03-15T04:23:18.583Z,53.52
2019-03-15T04:24:20.692Z,53.54
2019-03-15T04:25:22.915Z,53.51
2019-03-15T04:26:25.102Z,53.54
2019-03-15T04:27:27.306Z,53.52
2019-03-15T04:28:29.441Z,53.49
2019-03-15T04:29:31.651Z,53.43
2019-03-15T04:30:33.890Z,53.47
2019-03-15T04:31:36.120Z,53.43
2019-03-15T04:32:38.376Z,53.50
2019-03-15T04:33:41.587Z,53.47
2019-03-15T04:34:43.795Z,53.47
2019-03-15T04:35:46.032Z,53.46
2019-03-15T04:36:48.327Z,53.52
2019-03-15T04:37:50.527Z,53.43
2019-03-15T04:38:52.730Z,53.48
2019-03-15T04:39:56.055Z,53.49
2019-03-15T04:40:58.297Z,53.52
2019-03-15T04:42:00.510Z,53.49
2019-03-15T04:43:02.716Z,53.46
2019-03-15T04:44:04.934Z,53.52
2019-03-15T04:45:07.154Z,53.49
2019-03-15T04:46:09.362Z,53.48
2019-03-15T04:47:11.671Z,53.49
2019-03-15T04:48:13.864Z,53.46
2019-03-15T04:49:16.057Z,53.47
2019-03-15T04:50:18.257Z,53.46
2019-03-15T04:51:20.509Z,53.47
2019-03-15T04:52:25.075Z,53.46
2019-03-15T04:53:27.273Z,53.49
2019-03-15T04:54:29.475Z,53.50
2019-03-15T04:55:31.690Z,53.44
2019-03-15T04:56:33.914Z,53.45
2019-03-15T04:57:36.125Z,53.49
2019-03-15T04:58:38.329Z,53.46
2019-03-15T04:59:40.527Z,53.44
2019-03-15T05:00:42.827Z,53.40
2019-03-15T05:01:45.053Z,53.42
2019-03-15T05:02:47.277Z,53.44
2019-03-15T05:03:49.436Z,53.45
2019-03-15T05:04:51.640Z,53.44
2019-03-15T05:06:03.070Z,53.48
2019-03-15T05:06:57.809Z,53.43
2019-03-15T05:08:00.003Z,53.47
2019-03-15T05:09:02.196Z,53.47
2019-03-15T05:10:04.434Z,53.44
2019-03-15T05:11:06.713Z,53.44
2019-03-15T05:12:08.963Z,53.44
2019-03-15T05:13:11.176Z,53.45
2019-03-15T05:14:13.436Z,53.44
2019-03-15T05:15:18.370Z,53.45
2019-03-15T05:16:20.562Z,53.48
2019-03-15T05:17:22.795Z,53.45
2019-03-15T05:18:24.996Z,53.42
2019-03-15T05:19:27.205Z,53.40
2019-03-15T05:20:29.406Z,53.43
2019-03-15T05:21:31.599Z,53.39
2019-03-15T05:22:33.822Z,53.39
2019-03-15T05:23:36.049Z,53.40
2019-03-15T05:24:38.242Z,53.40
2019-03-15T05:25:40.449Z,53.38
2019-03-15T05:26:42.635Z,53.41
2019-03-15T05:27:44.853Z,53.41
2019-03-15T05:28:47.058Z,53.38
2019-03-15T05:29:49.258Z,53.33
2019-03-15T05:30:51.451Z,53.33
2019-03-15T05:31:53.671Z,53.39
2019-03-15T05:32:55.899Z,53.33
2019-03-15T05:33:58.100Z,53.33
2019-03-15T05:35:03.563Z,53.36
2019-03-15T05:36:05.756Z,53.32
2019-03-15T05:37:07.964Z,53.35
2019-03-15T05:38:10.187Z,53.35
2019-03-15T05:39:12.443Z,53.35
2019-03-15T05:40:17.541Z,53.32
2019-03-15T05:41:19.748Z,53.34
2019-03-15T05:42:21.947Z,53.30
2019-03-15T05:43:24.204Z,53.28
2019-03-15T05:44:26.374Z,53.33
2019-03-15T05:45:28.591Z,53.34
2019-03-15T05:46:30.800Z,53.29
2019-03-15T05:47:33.001Z,53.32
2019-03-15T05:48:35.245Z,53.30
2019-03-15T05:49:37.540Z,53.30
2019-03-15T05:50:40.918Z,53.25
2019-03-15T05:51:43.189Z,53.28
2019-03-15T05:52:45.414Z,53.27
2019-03-15T05:53:47.616Z,53.24
2019-03-15T05:54:49.837Z,53.28
2019-03-15T05:55:52.038Z,53.28
2019-03-15T06:01:51.340Z,52.79
2019-03-15T06:04:34.934Z,52.82
2019-03-15T06:05:37.162Z,53.00
2019-03-15T06:06:40.466Z,53.09
2019-03-15T06:07:42.662Z,53.02
2019-03-15T06:08:44.874Z,53.13
2019-03-15T06:11:26.122Z,53.13
2019-03-15T06:12:29.323Z,53.17
2019-03-15T06:13:34.248Z,53.17
2019-03-15T06:14:36.432Z,53.13
2019-03-15T06:15:38.638Z,53.17
2019-03-15T06:16:40.902Z,53.18
2019-03-15T06:17:43.114Z,53.18
2019-03-15T06:18:50.002Z,53.18
2019-03-15T06:19:52.284Z,53.22
2019-03-15T06:20:54.547Z,53.18
2019-03-15T06:21:56.760Z,53.17
2019-03-15T06:22:58.974Z,53.17
2019-03-15T06:24:01.175Z,53.17
2019-03-15T06:25:03.375Z,53.18
2019-03-15T06:26:05.591Z,53.15
2019-03-15T06:27:07.816Z,53.16
2019-03-15T06:28:10.146Z,53.17
2019-03-15T06:29:12.445Z,53.18
2019-03-15T06:30:14.658Z,53.20
2019-03-15T06:31:16.863Z,53.15
2019-03-15T06:32:19.098Z,53.19
2019-03-15T06:33:21.321Z,53.16
2019-03-15T06:34:23.512Z,53.21
2019-03-15T06:35:26.014Z,53.15
2019-03-15T06:36:28.220Z,53.17
2019-03-15T06:37:30.440Z,53.18
2019-03-15T06:38:33.632Z,53.17
2019-03-15T06:39:36.968Z,53.22
2019-03-15T06:40:39.249Z,53.20
2019-03-15T06:41:41.472Z,53.21
2019-03-15T06:42:43.800Z,53.18
2019-03-15T06:43:45.998Z,53.22
2019-03-15T06:44:57.882Z,53.24
2019-03-15T06:45:53.959Z,53.23
2019-03-15T06:46:56.162Z,53.22
2019-03-15T06:47:58.390Z,53.22
2019-03-15T06:49:00.596Z,53.23
2019-03-15T06:50:02.797Z,53.20
2019-03-15T06:51:05.008Z,53.17
2019-03-15T06:52:07.205Z,53.16
2019-03-15T06:53:09.448Z,53.19
2019-03-15T06:54:12.087Z,53.18
2019-03-15T06:55:14.364Z,53.16
2019-03-15T06:56:16.564Z,53.15
2019-03-15T06:57:18.780Z,53.15
2019-03-15T06:58:21.032Z,53.10
2019-03-15T06:59:23.232Z,53.15
2019-03-15T07:00:25.443Z,53.08
2019-03-15T07:01:27.691Z,53.10
2019-03-15T07:02:29.872Z,53.13
2019-03-15T07:03:32.131Z,53.12
2019-03-15T07:04:34.351Z,53.10
2019-03-15T07:05:36.547Z,53.10
2019-03-15T07:06:38.782Z,53.08
2019-03-15T07:07:40.990Z,53.11
2019-03-15T07:08:43.322Z,53.10
2019-03-15T07:09:45.662Z,53.10
2019-03-15T07:10:47.854Z,53.09
2019-03-15T07:11:50.075Z,53.06
2019-03-15T07:12:52.280Z,53.06
2019-03-15T07:13:54.547Z,53.09
2019-03-15T07:14:56.727Z,53.07
2019-03-15T07:15:58.948Z,53.04
2019-03-15T07:17:01.136Z,53.05
2019-03-15T07:18:03.363Z,53.07
2019-03-15T07:19:05.589Z,53.06
2019-03-15T07:20:07.790Z,53.07
2019-03-15T07:21:09.993Z,53.08
2019-03-15T07:22:12.227Z,53.08
2019-03-15T07:23:14.437Z,53.04
2019-03-15T07:24:25.192Z,52.92
2019-03-15T07:25:20.519Z,53.01
2019-03-15T07:26:22.901Z,53.03
2019-03-15T07:27:25.208Z,52.97
2019-03-15T07:28:27.439Z,53.03
2019-03-15T07:29:29.632Z,53.04
2019-03-15T07:30:31.823Z,53.03
2019-03-15T07:31:34.090Z,53.08
2019-03-15T07:32:36.256Z,53.04
2019-03-15T07:33:38.464Z,53.06
2019-03-15T07:34:41.373Z,53.04
2019-03-15T07:35:43.889Z,53.05
2019-03-15T07:36:46.095Z,53.05
2019-03-15T07:37:48.472Z,53.08
2019-03-15T07:38:50.699Z,53.03
2019-03-15T07:39:52.961Z,53.08
2019-03-15T07:40:55.175Z,53.05
2019-03-15T07:41:57.382Z,53.04
2019-03-15T07:43:03.418Z,53.03
2019-03-15T07:44:03.457Z,53.06
2019-03-15T07:45:05.693Z,53.05
2019-03-15T07:46:07.912Z,53.08
2019-03-15T07:47:10.136Z,53.07
2019-03-15T07:48:21.945Z,53.06
2019-03-15T07:49:16.206Z,53.08
2019-03-15T07:50:18.638Z,53.09
2019-03-15T07:51:20.946Z,53.06
2019-03-15T07:52:25.214Z,53.06
2019-03-15T07:53:27.413Z,53.07
2019-03-15T07:54:38.025Z,53.06
2019-03-15T07:55:33.665Z,53.07
2019-03-15T07:56:35.936Z,53.07
2019-03-15T07:57:38.126Z,53.09
2019-03-15T07:58:40.468Z,53.07
2019-03-15T07:59:42.641Z,53.05
2019-03-15T08:00:44.890Z,53.07
2019-03-15T08:01:47.083Z,53.04
2019-03-15T08:02:49.304Z,53.09
2019-03-15T08:03:51.515Z,53.05
2019-03-15T08:04:53.735Z,53.08
2019-03-15T08:05:55.978Z,53.09
2019-03-15T08:06:58.427Z,53.08
2019-03-15T08:08:00.646Z,53.09
2019-03-15T08:09:03.065Z,53.06
2019-03-15T08:10:05.279Z,53.08
2019-03-15T08:11:07.710Z,53.08
2019-03-15T08:12:10.045Z,53.09
2019-03-15T08:13:12.282Z,53.08
2019-03-15T08:14:14.494Z,53.09
2019-03-15T08:15:16.703Z,53.09
2019-03-15T08:16:18.966Z,53.06
2019-03-15T08:17:21.167Z,53.06
2019-03-15T08:18:23.383Z,53.10
2019-03-15T08:19:25.585Z,53.09
2019-03-15T08:20:27.801Z,53.07
2019-03-15T08:21:30.021Z,53.08
2019-03-15T08:22:32.233Z,53.06
2019-03-15T08:23:34.427Z,53.07
2019-03-15T08:24:36.845Z,53.06
2019-03-15T08:25:39.028Z,53.06
2019-03-15T08:26:41.306Z,53.05
2019-03-15T08:27:43.516Z,53.03
2019-03-15T08:28:45.747Z,53.04
2019-03-15T08:29:48.257Z,53.01
2019-03-15T08:30:50.445Z,53.00
2019-03-15T08:31:52.698Z,53.00
2019-03-15T08:32:54.933Z,53.01
2019-03-15T08:33:57.132Z,53.01
2019-03-15T08:34:59.342Z,53.00
2019-03-15T08:36:01.541Z,53.02
2019-03-15T08:37:03.707Z,52.99
2019-03-15T08:38:06.011Z,53.01
2019-03-15T08:39:08.331Z,52.98
2019-03-15T08:40:10.554Z,52.99
2019-03-15T08:41:12.775Z,53.00
2019-03-15T08:42:15.009Z,52.95
2019-03-15T08:43:19.484Z,52.97
2019-03-15T08:44:21.693Z,52.99
2019-03-15T08:45:23.958Z,52.98
2019-03-15T08:46:26.197Z,53.02
2019-03-15T08:47:28.433Z,53.00
2019-03-15T08:48:31.970Z,53.01
2019-03-15T08:49:34.331Z,52.99
2019-03-15T08:50:36.546Z,52.96
2019-03-15T08:51:38.743Z,52.82
2019-03-15T08:52:42.245Z,52.79
2019-03-15T08:53:44.568Z,52.79
2019-03-15T08:54:46.928Z,52.77
2019-03-15T08:55:49.093Z,52.78
2019-03-15T08:56:51.317Z,52.80
2019-03-15T08:57:53.531Z,52.83
2019-03-15T08:58:55.745Z,52.83
2019-03-15T08:59:58.056Z,52.74
2019-03-15T09:01:00.390Z,52.79
2019-03-15T09:02:02.581Z,52.76
2019-03-15T09:03:04.842Z,52.77
2019-03-15T09:04:07.041Z,52.76
2019-03-15T09:05:09.273Z,52.77
2019-03-15T09:06:11.484Z,52.80
2019-03-15T09:07:13.679Z,52.79
2019-03-15T09:08:15.908Z,52.80
2019-03-15T09:09:18.141Z,52.80
2019-03-15T09:10:23.600Z,52.80
2019-03-15T09:11:24.283Z,52.79
2019-03-15T09:12:29.358Z,52.78
2019-03-15T09:13:31.572Z,52.80
2019-03-15T09:14:33.769Z,52.77
2019-03-15T09:15:35.964Z,52.74
2019-03-15T09:16:38.187Z,52.70
2019-03-15T09:17:40.509Z,52.69
2019-03-15T09:18:42.750Z,52.70
2019-03-15T09:19:44.947Z,52.78
2019-03-15T09:20:47.158Z,52.82
2019-03-15T09:21:49.378Z,52.81
2019-03-15T09:22:51.601Z,52.83
2019-03-15T09:23:53.848Z,52.88
2019-03-15T09:24:56.052Z,52.90
2019-03-15T09:25:58.273Z,52.89
2019-03-15T09:27:00.474Z,52.91
2019-03-15T09:28:02.891Z,52.87
2019-03-15T09:29:05.125Z,52.92
2019-03-15T09:30:22.082Z,52.92
2019-03-15T09:31:12.321Z,52.87
2019-03-15T09:32:14.522Z,52.91
2019-03-15T09:33:16.747Z,52.90
2019-03-15T09:34:20.542Z,52.88
2019-03-15T09:35:22.679Z,52.89
2019-03-15T09:36:24.922Z,52.90
2019-03-15T09:37:27.086Z,52.90
2019-03-15T09:38:29.212Z,52.93
2019-03-15T09:39:31.452Z,52.90
2019-03-15T09:40:33.666Z,52.92
2019-03-15T09:41:39.762Z,52.90
2019-03-15T09:42:39.827Z,52.90
2019-03-15T09:43:45.229Z,52.92
2019-03-15T09:44:45.910Z,52.88
2019-03-15T09:45:48.104Z,52.88
2019-03-15T09:46:50.315Z,52.86
2019-03-15T09:47:52.626Z,52.84
2019-03-15T09:48:54.820Z,52.85
2019-03-15T09:50:00.430Z,52.88
2019-03-15T09:51:02.718Z,52.89
2019-03-15T09:52:04.912Z,52.92
2019-03-15T09:53:08.882Z,52.94
2019-03-15T09:54:12.633Z,52.95
2019-03-15T09:55:14.975Z,52.95
2019-03-15T09:56:17.278Z,52.93
2019-03-15T09:57:21.307Z,52.91
2019-03-15T09:58:23.539Z,52.94
2019-03-15T09:59:25.732Z,52.94
2019-03-15T10:00:30.008Z,52.96
2019-03-15T10:01:35.203Z,52.97
2019-03-15T10:02:36.130Z,53.00
2019-03-15T10:03:38.444Z,52.98
2019-03-15T10:04:40.634Z,52.98
2019-03-15T10:05:42.815Z,53.02
2019-03-15T10:06:48.019Z,53.03
2019-03-15T10:07:50.228Z,53.01
2019-03-15T10:08:52.511Z,53.03
2019-03-15T10:09:54.735Z,53.00
2019-03-15T10:10:56.977Z,53.00
2019-03-15T10:11:59.195Z,53.01
2019-03-15T10:13:06.198Z,52.99
2019-03-15T10:14:05.275Z,53.01
2019-03-15T10:15:08.128Z,53.04
2019-03-15T10:16:10.753Z,53.04
2019-03-15T10:17:12.954Z,53.00
2019-03-15T10:18:15.153Z,53.00
2019-03-15T10:19:17.368Z,52.98
2019-03-15T10:20:19.594Z,52.99
2019-03-15T10:21:21.837Z,53.02
2019-03-15T10:22:24.051Z,53.02
2019-03-15T10:23:26.270Z,52.99
2019-03-15T10:24:28.472Z,52.97
2019-03-15T10:25:30.789Z,53.00
2019-03-15T10:26:33.127Z,52.98
2019-03-15T10:27:35.430Z,52.97
2019-03-15T10:28:37.641Z,53.00
2019-03-15T10:29:39.842Z,53.04
2019-03-15T10:30:42.047Z,53.03
2019-03-15T10:31:44.287Z,53.01
2019-03-15T10:32:46.515Z,52.98
2019-03-15T10:33:50.625Z,53.00
2019-03-15T10:34:52.639Z,53.01
2019-03-15T10:35:55.101Z,53.01
2019-03-15T10:36:57.359Z,53.04
2019-03-15T10:37:59.569Z,53.03
2019-03-15T10:39:01.776Z,53.02
2019-03-15T10:40:04.083Z,53.01
2019-03-15T10:41:07.403Z,53.01
2019-03-15T10:42:09.622Z,53.00
2019-03-15T10:43:11.828Z,53.00
2019-03-15T10:44:14.039Z,53.01
2019-03-15T10:45:16.233Z,53.04
2019-03-15T10:46:18.431Z,53.02
2019-03-15T10:47:20.684Z,53.01
2019-03-15T10:48:25.413Z,53.04
2019-03-15T10:49:26.831Z,53.04
2019-03-15T10:50:29.045Z,53.04
2019-03-15T10:51:31.246Z,53.05
2019-03-15T10:52:33.683Z,53.04
2019-03-15T10:53:35.883Z,53.04
2019-03-15T10:54:38.098Z,53.06
2019-03-15T10:55:40.371Z,53.07
2019-03-15T10:56:42.661Z,53.05
2019-03-15T10:57:44.901Z,53.08
2019-03-15T10:58:47.211Z,53.07
2019-03-15T10:59:49.409Z,53.07
2019-03-15T11:00:51.721Z,53.08
2019-03-15T11:01:53.945Z,53.07
2019-03-15T11:02:56.179Z,53.08
2019-03-15T11:03:58.528Z,53.06
2019-03-15T11:05:00.733Z,53.06
2019-03-15T11:06:03.149Z,53.06
2019-03-15T11:07:05.349Z,53.05
2019-03-15T11:08:07.722Z,53.07
2019-03-15T11:09:09.924Z,53.07
2019-03-15T11:10:14.944Z,53.08
2019-03-15T11:11:17.151Z,53.04
2019-03-15T11:12:19.370Z,53.05
2019-03-15T11:13:21.603Z,53.04
2019-03-15T11:14:23.826Z,53.03
2019-03-15T11:15:26.034Z,53.05
2019-03-15T11:16:28.242Z,53.05
2019-03-15T11:17:30.464Z,53.05
2019-03-15T11:18:32.662Z,53.04
2019-03-15T11:19:34.876Z,53.07
2019-03-15T11:20:37.082Z,53.09
2019-03-15T11:21:39.292Z,53.04
2019-03-15T11:22:41.493Z,53.03
2019-03-15T11:23:43.718Z,53.03
2019-03-15T11:24:45.932Z,53.04
2019-03-15T11:25:48.143Z,53.04
2019-03-15T11:26:50.352Z,53.03
2019-03-15T11:27:52.633Z,53.05
2019-03-15T11:28:54.864Z,53.04
2019-03-15T11:30:00.054Z,53.05
2019-03-15T11:31:02.237Z,53.05
2019-03-15T11:32:04.459Z,53.05
2019-03-15T11:33:06.660Z,53.04
2019-03-15T11:34:08.913Z,53.04
2019-03-15T11:35:11.120Z,53.06
2019-03-15T11:36:13.338Z,53.05
2019-03-15T11:37:15.531Z,53.00
2019-03-15T11:38:17.745Z,52.93
2019-03-15T11:39:19.988Z,52.90
2019-03-15T11:40:22.186Z,54.15
2019-03-15T11:41:24.393Z,55.72
2019-03-15T11:42:26.710Z,56.33
2019-03-15T11:43:28.919Z,56.23
2019-03-15T11:44:31.172Z,55.93
2019-03-15T15:16:05.413Z,52.40
2019-03-15T15:17:07.746Z,51.51
2019-03-15T15:18:10.045Z,51.20
2019-03-15T15:19:12.470Z,50.98
2019-03-15T15:20:15.829Z,51.06
2019-03-15T15:21:17.987Z,51.07
2019-03-15T15:22:20.190Z,51.07
2019-03-15T15:23:22.490Z,50.85
2019-03-15T15:24:24.670Z,50.99
2019-03-15T15:25:26.884Z,51.04
2019-03-15T15:26:31.846Z,51.05
2019-03-15T15:27:34.175Z,51.10
2019-03-15T15:28:36.400Z,51.04
2019-03-15T15:29:38.625Z,50.98
2019-03-15T15:30:40.819Z,51.02
2019-03-15T15:31:43.031Z,51.10
2019-03-15T15:32:45.258Z,51.00
2019-03-15T15:33:47.456Z,51.09
2019-03-15T15:34:49.696Z,50.92
2019-03-15T15:35:51.908Z,50.98
2019-03-15T15:36:55.140Z,50.99
2019-03-15T15:37:57.349Z,50.90
2019-03-15T15:38:59.554Z,51.00
2019-03-15T15:40:01.799Z,50.85
2019-03-15T15:41:04.091Z,50.97
2019-03-15T15:42:06.341Z,50.87
2019-03-15T15:43:08.557Z,50.94
2019-03-15T15:44:10.805Z,50.80
2019-03-15T15:45:13.096Z,50.99
2019-03-15T15:46:15.303Z,50.95
2019-03-15T15:47:17.527Z,50.98
2019-03-15T15:48:19.749Z,51.02
2019-03-15T15:49:26.261Z,50.88
2019-03-15T15:50:28.539Z,50.68
2019-03-15T15:51:30.741Z,50.86
2019-03-15T15:52:32.951Z,50.99
2019-03-15T15:53:35.251Z,50.92
2019-03-15T15:54:37.698Z,50.74
2019-03-15T15:55:39.985Z,50.65
2019-03-15T15:56:42.197Z,50.80
2019-03-15T15:57:44.416Z,50.93
2019-03-15T15:58:46.684Z,50.89
2019-03-15T15:59:48.891Z,50.90
2019-03-15T16:00:51.167Z,50.85
2019-03-15T16:01:53.371Z,50.92
2019-03-15T16:02:55.592Z,50.84
2019-03-15T16:03:57.809Z,50.82
2019-03-15T16:05:00.019Z,50.77
2019-03-15T16:06:04.567Z,50.74
2019-03-15T16:07:06.924Z,50.71
2019-03-15T16:08:09.314Z,50.91
2019-03-15T16:09:11.465Z,50.91
2019-03-15T16:10:13.679Z,50.75
2019-03-15T16:11:15.912Z,50.84
2019-03-15T16:12:18.136Z,50.85
2019-03-15T16:13:20.357Z,50.90
2019-03-15T16:14:25.276Z,50.65
2019-03-15T16:15:27.489Z,50.64
2019-03-15T16:16:29.751Z,50.66
2019-03-15T16:17:31.981Z,50.71
2019-03-15T16:18:37.318Z,50.58
2019-03-15T16:19:39.654Z,50.82
2019-03-15T16:20:41.855Z,50.69
2019-03-15T16:21:44.238Z,50.66
2019-03-15T16:22:46.465Z,50.76
2019-03-15T16:23:48.778Z,50.70
2019-03-15T16:24:51.001Z,50.70
2019-03-15T16:25:53.199Z,50.78
2019-03-15T16:26:55.443Z,50.77
2019-03-15T16:27:57.670Z,50.80
2019-03-15T16:28:59.873Z,50.61
2019-03-15T16:30:02.089Z,50.69
2019-03-15T16:31:04.307Z,50.54
2019-03-15T16:32:06.570Z,50.69
2019-03-15T16:33:08.772Z,50.78
2019-03-15T16:34:10.983Z,50.57
2019-03-15T16:35:13.362Z,50.76
2019-03-15T16:36:15.576Z,50.60
2019-03-15T16:37:17.823Z,50.54
2019-03-15T16:38:20.033Z,50.59
2019-03-15T16:39:22.287Z,50.76
2019-03-15T16:40:25.823Z,50.67
2019-03-15T16:41:28.133Z,50.48
2019-03-15T16:42:32.181Z,50.76
2019-03-15T16:43:34.444Z,50.56
2019-03-15T16:44:36.744Z,50.58
2019-03-15T16:45:38.963Z,50.69
2019-03-15T16:46:41.185Z,50.65
2019-03-15T16:47:43.427Z,50.47
2019-03-15T16:48:45.854Z,50.59
2019-03-15T16:49:48.133Z,50.75
2019-03-15T16:50:51.789Z,50.54
2019-03-15T16:51:54.419Z,50.65
2019-03-15T16:52:56.666Z,50.53
2019-03-15T16:53:58.870Z,50.59
2019-03-15T16:55:01.078Z,50.61
2019-03-15T16:56:03.293Z,50.62
2019-03-15T16:57:05.456Z,50.53
2019-03-15T16:58:07.709Z,50.59
2019-03-15T16:59:09.921Z,50.68
2019-03-15T17:00:12.132Z,50.63
2019-03-15T17:01:14.399Z,50.56
2019-03-15T17:02:16.629Z,50.66